createdAt,value
2019-06-07T00:00:33.116Z,12.08
2019-06-07T00:01:19.285Z,12.06
2019-06-07T00:02:16.520Z,12.12
2019-06-07T00:03:27.320Z,12.15
2019-06-07T00:04:16.634Z,12.13
2019-06-07T00:05:19.609Z,12.16
2019-06-07T00:06:21.140Z,12.23
2019-06-07T00:07:17.857Z,12.19
2019-06-07T00:08:24.653Z,12.23
2019-06-07T00:09:18.425Z,12.20
2019-06-07T00:10:34.856Z,12.12
2019-06-07T00:11:19.933Z,12.15
2019-06-07T00:12:19.516Z,12.18
2019-06-07T00:13:18.653Z,12.18
2019-06-07T00:14:18.275Z,12.18
2019-06-07T00:15:21.786Z,12.13
2019-06-07T00:16:19.822Z,12.13
2019-06-07T00:17:18.086Z,12.15
2019-06-07T00:18:20.745Z,12.15
2019-06-07T00:19:18.621Z,12.12
2019-06-07T00:20:20.041Z,12.12
2019-06-07T00:21:17.704Z,12.19
2019-06-07T00:22:29.479Z,12.15
2019-06-07T00:23:20.584Z,12.13
2019-06-07T00:24:18.632Z,12.03
2019-06-07T00:25:21.279Z,12.09
2019-06-07T00:26:18.019Z,12.08
2019-06-07T00:27:18.167Z,12.13
2019-06-07T00:28:18.360Z,12.12
2019-06-07T00:29:17.228Z,12.15
2019-06-07T00:30:35.785Z,12.13
2019-06-07T00:31:21.979Z,12.15
2019-06-07T00:32:19.011Z,12.13
2019-06-07T00:33:19.154Z,12.06
2019-06-07T00:34:18.782Z,12.06
2019-06-07T00:35:19.320Z,12.08
2019-06-07T00:36:18.082Z,12.09
2019-06-07T00:37:19.938Z,12.03
2019-06-07T00:38:18.621Z,12.01
2019-06-07T00:39:20.189Z,12.03
2019-06-07T00:40:24.880Z,12.05
2019-06-07T00:41:19.252Z,12.15
2019-06-07T00:42:17.404Z,12.12
2019-06-07T00:43:19.178Z,12.12
2019-06-07T00:44:18.451Z,12.12
2019-06-07T00:45:18.886Z,12.13
2019-06-07T00:46:18.241Z,12.12
2019-06-07T00:47:19.701Z,12.01
2019-06-07T00:48:26.501Z,12.05
2019-06-07T00:49:31.975Z,12.06
2019-06-07T00:50:19.108Z,12.09
2019-06-07T00:51:17.651Z,12.11
2019-06-07T00:52:58.421Z,12.08
2019-06-07T00:53:19.980Z,12.08
2019-06-07T00:54:18.519Z,12.13
2019-06-07T00:55:18.023Z,12.19
2019-06-07T00:56:18.707Z,12.16
2019-06-07T00:57:17.559Z,12.13
2019-06-07T00:58:17.818Z,12.12
2019-06-07T00:59:19.026Z,12.02
2019-06-07T01:00:18.155Z,11.99
2019-06-07T01:01:18.745Z,12.01
2019-06-07T01:02:19.131Z,12.02
2019-06-07T01:03:17.339Z,11.99
2019-06-07T01:04:19.295Z,12.03
2019-06-07T01:05:20.150Z,11.98
2019-06-07T01:06:17.508Z,12.03
2019-06-07T01:07:18.422Z,11.99
2019-06-07T01:08:19.349Z,12.09
2019-06-07T01:09:17.735Z,12.12
2019-06-07T01:10:21.173Z,12.08
2019-06-07T01:11:18.167Z,12.12
2019-06-07T01:12:18.507Z,12.12
2019-06-07T01:13:17.122Z,12.13
2019-06-07T01:14:19.288Z,12.05
2019-06-07T01:15:18.117Z,12.03
2019-06-07T01:16:18.363Z,12.02
2019-06-07T01:17:27.424Z,12.01
2019-06-07T01:18:37.183Z,12.03
2019-06-07T01:19:16.359Z,12.05
2019-06-07T01:20:16.774Z,12.08
2019-06-07T01:21:20.522Z,12.08
2019-06-07T01:22:17.892Z,12.09
2019-06-07T01:23:54.162Z,12.12
2019-06-07T01:24:17.580Z,12.09
2019-06-07T01:25:18.230Z,12.11
2019-06-07T01:26:19.950Z,12.03
2019-06-07T01:27:18.386Z,12.05
2019-06-07T01:28:20.578Z,12.06
2019-06-07T01:29:18.250Z,12.05
2019-06-07T01:30:18.571Z,12.08
2019-06-07T01:31:19.223Z,12.08
2019-06-07T01:32:17.388Z,12.09
2019-06-07T01:33:18.299Z,12.08
2019-06-07T01:34:16.684Z,12.09
2019-06-07T01:35:17.201Z,12.12
2019-06-07T01:36:18.176Z,12.11
2019-06-07T01:37:16.927Z,12.11
2019-06-07T01:38:17.108Z,12.12
2019-06-07T01:39:17.411Z,12.13
2019-06-07T01:40:17.811Z,12.12
2019-06-07T01:41:18.062Z,12.15
2019-06-07T01:42:18.584Z,12.12
2019-06-07T01:43:16.948Z,12.19
2019-06-07T01:44:18.417Z,12.22
2019-06-07T01:45:18.305Z,12.16
2019-06-07T01:46:18.158Z,12.19
2019-06-07T01:47:17.816Z,12.16
2019-06-07T01:48:19.745Z,12.15
2019-06-07T01:49:17.109Z,12.13
2019-06-07T01:50:16.993Z,12.08
2019-06-07T01:51:18.864Z,12.08
2019-06-07T01:52:16.629Z,12.11
2019-06-07T01:53:19.374Z,12.06
2019-06-07T01:54:49.087Z,12.11
2019-06-07T01:55:18.751Z,12.11
2019-06-07T01:56:18.479Z,12.13
2019-06-07T01:57:33.937Z,12.13
2019-06-07T01:58:17.027Z,12.12
2019-06-07T01:59:17.763Z,12.08
2019-06-07T02:00:17.363Z,12.09
2019-06-07T02:01:19.135Z,12.12
2019-06-07T02:02:17.475Z,12.16
2019-06-07T02:03:18.515Z,12.16
2019-06-07T02:04:19.974Z,12.16
2019-06-07T02:05:19.109Z,12.19
2019-06-07T02:06:18.396Z,12.18
2019-06-07T02:07:19.008Z,12.19
2019-06-07T02:08:16.289Z,12.16
2019-06-07T02:09:16.557Z,12.11
2019-06-07T02:10:16.833Z,12.18
2019-06-07T02:11:17.989Z,12.20
2019-06-07T02:12:25.436Z,12.25
2019-06-07T02:13:16.253Z,12.20
2019-06-07T02:14:16.531Z,12.22
2019-06-07T02:15:16.852Z,12.19
2019-06-07T02:16:17.140Z,12.16
2019-06-07T02:17:16.415Z,12.18
2019-06-07T02:18:16.682Z,12.13
2019-06-07T02:19:17.019Z,12.03
2019-06-07T02:20:16.302Z,12.01
2019-06-07T02:21:16.349Z,12.02
2019-06-07T02:22:16.624Z,11.99
2019-06-07T02:23:16.880Z,12.03
2019-06-07T02:24:17.163Z,12.08
2019-06-07T02:25:35.594Z,12.11
2019-06-07T02:26:16.787Z,12.12
2019-06-07T02:27:17.061Z,12.13
2019-06-07T02:28:29.692Z,12.09
2019-06-07T02:29:16.635Z,12.06
2019-06-07T02:30:40.023Z,12.09
2019-06-07T02:31:16.282Z,12.02
2019-06-07T02:32:16.555Z,12.02
2019-06-07T02:33:16.875Z,12.05
2019-06-07T02:34:17.150Z,12.06
2019-06-07T02:35:16.430Z,12.02
2019-06-07T02:36:16.738Z,11.99
2019-06-07T02:37:17.013Z,12.03
2019-06-07T02:38:16.287Z,12.09
2019-06-07T02:39:16.564Z,12.09
2019-06-07T02:40:16.845Z,12.08
2019-06-07T02:41:16.912Z,12.09
2019-06-07T02:42:17.175Z,12.09
2019-06-07T02:43:16.455Z,12.08
2019-06-07T02:44:16.737Z,12.06
2019-06-07T02:45:17.000Z,12.06
2019-06-07T02:46:26.151Z,12.12
2019-06-07T02:47:16.259Z,12.12
2019-06-07T02:48:16.531Z,12.11
2019-06-07T02:49:16.819Z,12.12
2019-06-07T02:50:17.166Z,12.06
2019-06-07T02:51:16.216Z,12.06
2019-06-07T02:52:16.514Z,12.11
2019-06-07T02:53:16.861Z,12.12
2019-06-07T02:54:17.161Z,12.12
2019-06-07T02:55:16.460Z,12.13
2019-06-07T02:56:38.900Z,12.11
2019-06-07T02:57:17.091Z,12.06
2019-06-07T02:58:16.377Z,12.06
2019-06-07T02:59:16.732Z,12.06
2019-06-07T03:00:41.123Z,12.08
2019-06-07T03:01:16.295Z,12.12
2019-06-07T03:02:16.582Z,12.13
2019-06-07T03:03:16.873Z,12.22
2019-06-07T03:04:17.279Z,12.22
2019-06-07T03:05:16.579Z,12.16
2019-06-07T03:06:16.889Z,12.15
2019-06-07T03:07:16.515Z,12.15
2019-06-07T03:08:16.798Z,12.13
2019-06-07T03:09:17.098Z,12.11
2019-06-07T03:10:16.375Z,12.12
2019-06-07T03:11:16.423Z,12.15
2019-06-07T03:12:16.701Z,12.15
2019-06-07T03:13:16.970Z,12.16
2019-06-07T03:14:16.243Z,12.11
2019-06-07T03:15:32.538Z,12.12
2019-06-07T03:16:17.011Z,12.11
2019-06-07T03:17:16.284Z,12.11
2019-06-07T03:18:16.546Z,12.15
2019-06-07T03:19:16.817Z,12.15
2019-06-07T03:20:17.095Z,12.16
2019-06-07T03:21:17.151Z,12.16
2019-06-07T03:22:16.422Z,12.20
2019-06-07T03:23:16.691Z,12.18
2019-06-07T03:24:16.961Z,12.20
2019-06-07T03:25:16.227Z,12.25
2019-06-07T03:26:16.495Z,12.23
2019-06-07T03:27:34.558Z,12.28
2019-06-07T03:28:16.494Z,12.20
2019-06-07T03:29:16.765Z,12.19
2019-06-07T03:30:36.749Z,12.13
2019-06-07T03:31:16.466Z,12.13
2019-06-07T03:32:16.754Z,12.18
2019-06-07T03:33:17.043Z,12.19
2019-06-07T03:34:16.322Z,12.19
2019-06-07T03:35:16.598Z,12.20
2019-06-07T03:36:23.652Z,12.15
2019-06-07T03:37:16.347Z,12.18
2019-06-07T03:38:16.620Z,12.15
2019-06-07T03:39:16.886Z,12.16
2019-06-07T03:40:17.164Z,12.13
2019-06-07T03:41:16.339Z,12.25
2019-06-07T03:42:16.723Z,12.25
2019-06-07T03:43:16.994Z,12.25
2019-06-07T03:44:16.278Z,12.22
2019-06-07T03:45:16.554Z,12.16
2019-06-07T03:46:16.831Z,12.15
2019-06-07T03:47:17.096Z,12.16
2019-06-07T03:48:16.376Z,12.16
2019-06-07T03:49:16.652Z,12.18
2019-06-07T03:50:16.926Z,12.18
2019-06-07T03:51:23.902Z,12.22
2019-06-07T03:52:17.141Z,12.23
2019-06-07T03:53:16.411Z,12.25
2019-06-07T03:54:16.670Z,12.29
2019-06-07T03:55:16.942Z,12.33
2019-06-07T03:56:17.217Z,12.35
2019-06-07T03:57:16.488Z,12.33
2019-06-07T03:58:31.153Z,12.35
2019-06-07T03:59:16.938Z,12.35
2019-06-07T04:00:16.210Z,12.28
2019-06-07T04:01:16.294Z,12.29
2019-06-07T04:02:16.570Z,12.35
2019-06-07T04:03:32.724Z,12.36
2019-06-07T04:04:16.307Z,12.35
2019-06-07T04:05:16.584Z,12.36
2019-06-07T04:06:16.849Z,12.44
2019-06-07T04:07:17.117Z,12.44
2019-06-07T04:08:16.386Z,12.46
2019-06-07T04:09:16.649Z,12.41
2019-06-07T04:10:16.935Z,12.43
2019-06-07T04:11:16.995Z,12.39
2019-06-07T04:12:16.256Z,12.43
2019-06-07T04:13:16.526Z,12.43
2019-06-07T04:14:16.801Z,12.46
2019-06-07T04:15:17.088Z,12.46
2019-06-07T04:16:16.359Z,12.49
2019-06-07T04:17:16.626Z,12.54
2019-06-07T04:18:16.903Z,12.51
2019-06-07T04:19:17.178Z,12.47
2019-06-07T04:20:16.455Z,12.51
2019-06-07T04:21:16.524Z,12.50
2019-06-07T04:22:16.793Z,12.54
2019-06-07T04:23:27.541Z,12.51
2019-06-07T04:24:16.490Z,12.47
2019-06-07T04:25:16.811Z,12.57
2019-06-07T04:26:17.092Z,12.58
2019-06-07T04:27:16.370Z,12.58
2019-06-07T04:28:16.629Z,12.60
2019-06-07T04:29:36.847Z,12.63
2019-06-07T04:30:16.229Z,12.66
2019-06-07T04:31:16.290Z,12.58
2019-06-07T04:32:16.565Z,12.60
2019-06-07T04:33:16.834Z,12.61
2019-06-07T04:34:16.975Z,12.66
2019-06-07T04:35:16.254Z,12.64
2019-06-07T04:36:16.631Z,12.60
2019-06-07T04:37:16.910Z,12.61
2019-06-07T04:38:17.187Z,12.67
2019-06-07T04:39:16.452Z,12.70
2019-06-07T04:40:16.760Z,12.68
2019-06-07T04:41:16.800Z,12.72
2019-06-07T04:42:17.072Z,12.78
2019-06-07T04:43:16.353Z,12.78
2019-06-07T04:44:16.624Z,12.78
2019-06-07T04:45:32.318Z,12.82
2019-06-07T04:46:16.465Z,12.88
2019-06-07T04:47:16.755Z,12.85
2019-06-07T04:48:17.044Z,12.82
2019-06-07T04:49:16.301Z,12.87
2019-06-07T04:50:16.603Z,12.89
2019-06-07T04:51:16.662Z,12.91
2019-06-07T04:52:17.082Z,12.96
2019-06-07T04:53:16.342Z,12.84
2019-06-07T04:54:16.611Z,12.81
2019-06-07T04:55:16.885Z,12.87
2019-06-07T04:56:17.404Z,12.82
2019-06-07T04:57:16.674Z,12.95
2019-06-07T04:58:16.951Z,12.92
2019-06-07T04:59:53.730Z,12.94
2019-06-07T05:00:46.539Z,13.05
2019-06-07T05:01:27.096Z,13.02
2019-06-07T05:02:16.840Z,13.04
2019-06-07T05:03:17.105Z,13.09
2019-06-07T05:04:16.379Z,13.11
2019-06-07T05:05:16.656Z,13.11
2019-06-07T05:06:16.936Z,13.11
2019-06-07T05:07:16.216Z,13.15
2019-06-07T05:08:27.337Z,13.27
2019-06-07T05:09:16.591Z,13.30
2019-06-07T05:10:16.874Z,13.33
2019-06-07T05:11:16.956Z,13.30
2019-06-07T05:12:16.223Z,13.36
2019-06-07T05:13:16.481Z,13.42
2019-06-07T05:14:16.755Z,13.43
2019-06-07T05:15:17.030Z,13.49
2019-06-07T05:16:16.299Z,13.53
2019-06-07T05:17:16.585Z,13.61
2019-06-07T05:18:16.853Z,13.58
2019-06-07T05:19:17.119Z,13.53
2019-06-07T05:20:16.399Z,13.57
2019-06-07T05:21:16.432Z,13.68
2019-06-07T05:22:16.699Z,13.68
2019-06-07T05:23:55.636Z,13.53
2019-06-07T05:24:16.323Z,13.68
2019-06-07T05:25:16.601Z,13.76
2019-06-07T05:26:16.857Z,13.84
2019-06-07T05:27:17.136Z,13.94
2019-06-07T05:28:16.402Z,13.92
2019-06-07T05:29:16.670Z,13.94
2019-06-07T05:30:50.902Z,13.90
2019-06-07T05:31:16.337Z,13.87
2019-06-07T05:32:16.614Z,13.95
2019-06-07T05:33:16.989Z,13.98
2019-06-07T05:34:16.327Z,14.08
2019-06-07T05:35:16.641Z,14.08
2019-06-07T05:36:17.168Z,14.07
2019-06-07T05:37:16.454Z,14.09
2019-06-07T05:38:16.735Z,14.05
2019-06-07T05:39:17.003Z,14.04
2019-06-07T05:40:16.281Z,13.90
2019-06-07T05:41:16.352Z,13.97
2019-06-07T05:42:16.630Z,13.97
2019-06-07T05:43:16.919Z,13.95
2019-06-07T05:44:16.264Z,13.97
2019-06-07T05:45:16.540Z,14.00
2019-06-07T05:46:16.839Z,14.07
2019-06-07T05:47:17.136Z,14.05
2019-06-07T05:48:16.412Z,14.09
2019-06-07T05:49:16.689Z,14.04
2019-06-07T05:50:38.312Z,14.02
2019-06-07T05:51:16.323Z,14.02
2019-06-07T05:52:16.603Z,14.16
2019-06-07T05:53:16.887Z,14.23
2019-06-07T05:54:17.169Z,14.22
2019-06-07T05:55:16.445Z,14.16
2019-06-07T05:56:17.073Z,14.15
2019-06-07T05:57:17.129Z,14.07
2019-06-07T05:58:16.398Z,14.11
2019-06-07T05:59:16.683Z,14.09
2019-06-07T06:00:17.024Z,14.11
2019-06-07T06:01:42.619Z,14.13
2019-06-07T06:02:22.423Z,14.22
2019-06-07T06:03:17.239Z,14.29
2019-06-07T06:04:16.509Z,14.36
2019-06-07T06:05:32.306Z,14.32
2019-06-07T06:06:16.593Z,14.36
2019-06-07T06:07:16.863Z,14.52
2019-06-07T06:08:17.152Z,14.57
2019-06-07T06:09:16.446Z,14.55
2019-06-07T06:10:16.721Z,14.81
2019-06-07T06:11:16.783Z,14.94
2019-06-07T06:12:33.796Z,15.04
2019-06-07T06:13:16.433Z,15.46
2019-06-07T06:14:16.697Z,15.60
2019-06-07T06:15:17.044Z,15.50
2019-06-07T06:16:16.313Z,15.57
2019-06-07T06:17:16.616Z,15.66
2019-06-07T06:18:16.894Z,15.62
2019-06-07T06:19:17.169Z,15.92
2019-06-07T06:20:16.466Z,15.94
2019-06-07T06:21:19.878Z,16.42
2019-06-07T06:22:16.851Z,16.31
2019-06-07T06:23:17.135Z,16.12
2019-06-07T06:24:16.413Z,16.12
2019-06-07T06:25:31.350Z,15.82
2019-06-07T06:26:16.827Z,15.77
2019-06-07T06:27:55.526Z,15.88
2019-06-07T06:28:16.478Z,16.19
2019-06-07T06:29:16.747Z,16.47
2019-06-07T06:30:17.038Z,16.95
2019-06-07T06:31:17.100Z,16.86
2019-06-07T06:32:40.942Z,16.76
2019-06-07T06:33:31.100Z,16.78
2019-06-07T06:34:17.046Z,17.15
2019-06-07T06:35:16.357Z,17.36
2019-06-07T06:36:16.646Z,17.29
2019-06-07T06:37:16.968Z,17.21
2019-06-07T06:38:16.237Z,17.28
2019-06-07T06:39:16.513Z,16.68
2019-06-07T06:40:16.803Z,16.68
2019-06-07T06:41:17.139Z,16.49
2019-06-07T06:42:16.470Z,16.88
2019-06-07T06:43:16.753Z,17.05
2019-06-07T06:44:17.058Z,17.83
2019-06-07T06:45:16.339Z,17.05
2019-06-07T06:46:37.263Z,16.86
2019-06-07T06:47:16.977Z,16.73
2019-06-07T06:48:16.256Z,17.45
2019-06-07T06:49:16.528Z,17.62
2019-06-07T06:50:16.813Z,17.42
2019-06-07T06:51:16.885Z,17.49
2019-06-07T06:52:17.158Z,17.70
2019-06-07T06:53:16.429Z,17.70
2019-06-07T06:54:28.213Z,17.57
2019-06-07T06:55:17.075Z,17.01
2019-06-07T06:56:16.354Z,17.35
2019-06-07T06:57:19.891Z,17.65
2019-06-07T06:58:16.808Z,17.65
2019-06-07T06:59:38.478Z,18.27
2019-06-07T07:00:17.039Z,18.08
2019-06-07T07:01:17.116Z,17.91
2019-06-07T07:02:16.405Z,17.84
2019-06-07T07:04:10.998Z,17.25
2019-06-07T07:04:17.043Z,17.07
2019-06-07T07:05:16.334Z,17.29
2019-06-07T07:06:25.662Z,17.60
2019-06-07T07:07:16.346Z,17.72
2019-06-07T07:08:16.606Z,18.00
2019-06-07T07:09:16.866Z,18.00
2019-06-07T07:10:17.135Z,17.86
2019-06-07T07:11:17.206Z,17.72
2019-06-07T07:12:16.485Z,17.63
2019-06-07T07:13:16.757Z,17.11
2019-06-07T07:14:17.016Z,17.33
2019-06-07T07:15:16.289Z,17.79
2019-06-07T07:16:16.560Z,18.14
2019-06-07T07:17:16.868Z,17.54
2019-06-07T07:18:17.138Z,17.53
2019-06-07T07:19:16.413Z,17.32
2019-06-07T07:20:16.707Z,17.53
2019-06-07T07:21:16.743Z,17.68
2019-06-07T07:22:17.018Z,17.41
2019-06-07T07:23:17.350Z,17.48
2019-06-07T07:24:21.384Z,17.36
2019-06-07T07:25:16.809Z,17.25
2019-06-07T07:26:17.078Z,17.56
2019-06-07T07:27:16.346Z,17.59
2019-06-07T07:28:16.618Z,17.74
2019-06-07T07:29:16.921Z,17.89
2019-06-07T07:30:35.870Z,17.93
2019-06-07T07:31:16.297Z,17.90
2019-06-07T07:32:16.563Z,18.04
2019-06-07T07:33:16.942Z,17.94
2019-06-07T07:34:34.341Z,17.89
2019-06-07T07:35:16.842Z,17.69
2019-06-07T07:36:35.532Z,17.68
2019-06-07T07:37:16.491Z,17.60
2019-06-07T07:38:16.770Z,17.38
2019-06-07T07:39:17.331Z,17.29
2019-06-07T07:40:56.026Z,17.59
2019-06-07T07:41:17.034Z,17.50
2019-06-07T07:42:21.045Z,17.59
2019-06-07T07:43:17.166Z,17.66
2019-06-07T07:44:16.437Z,18.03
2019-06-07T07:45:16.719Z,17.49
2019-06-07T07:46:28.926Z,17.46
2019-06-07T07:47:16.441Z,17.62
2019-06-07T07:48:18.450Z,17.52
2019-06-07T07:49:17.203Z,17.49
2019-06-07T07:50:16.501Z,17.63
2019-06-07T07:51:16.552Z,17.62
2019-06-07T07:52:16.819Z,17.62
2019-06-07T07:53:17.093Z,17.62
2019-06-07T07:54:16.422Z,17.65
2019-06-07T07:55:16.750Z,17.63
2019-06-07T07:56:17.129Z,18.00
2019-06-07T07:57:16.407Z,17.72
2019-06-07T07:58:16.686Z,17.94
2019-06-07T07:59:16.971Z,17.89
2019-06-07T08:00:49.235Z,17.90
2019-06-07T08:01:16.638Z,17.79
2019-06-07T08:02:16.902Z,17.74
2019-06-07T08:03:17.177Z,18.12
2019-06-07T08:04:16.444Z,18.31
2019-06-07T08:05:23.153Z,18.55
2019-06-07T08:06:16.441Z,18.07
2019-06-07T08:07:16.713Z,17.96
2019-06-07T08:08:17.004Z,17.86
2019-06-07T08:09:16.262Z,17.91
2019-06-07T08:10:16.539Z,18.31
2019-06-07T08:11:16.594Z,18.49
2019-06-07T08:12:16.860Z,18.70
2019-06-07T08:13:24.309Z,18.45
2019-06-07T08:14:16.641Z,18.35
2019-06-07T08:15:16.915Z,18.05
2019-06-07T08:16:18.763Z,18.27
2019-06-07T08:17:16.447Z,17.74
2019-06-07T08:18:16.718Z,17.74
2019-06-07T08:19:16.993Z,18.10
2019-06-07T08:20:16.282Z,18.21
2019-06-07T08:21:25.055Z,18.66
2019-06-07T08:22:16.450Z,18.82
2019-06-07T08:23:16.727Z,18.63
2019-06-07T08:24:17.009Z,18.54
2019-06-07T08:25:16.342Z,18.62
2019-06-07T08:26:16.605Z,18.55
2019-06-07T08:27:25.657Z,18.51
2019-06-07T08:28:16.230Z,18.31
2019-06-07T08:29:16.513Z,18.48
2019-06-07T08:30:46.924Z,18.44
2019-06-07T08:31:17.138Z,18.45
2019-06-07T08:32:16.448Z,18.33
2019-06-07T08:33:25.763Z,18.33
2019-06-07T08:34:16.336Z,18.67
2019-06-07T08:35:57.188Z,18.88
2019-06-07T08:36:20.188Z,19.11
2019-06-07T08:37:16.385Z,19.08
2019-06-07T08:38:29.578Z,18.94
2019-06-07T08:39:16.994Z,18.70
2019-06-07T08:40:16.327Z,18.66
2019-06-07T08:41:16.367Z,18.87
2019-06-07T08:42:21.747Z,18.73
2019-06-07T08:43:20.510Z,18.83
2019-06-07T08:44:23.562Z,18.88
2019-06-07T08:45:16.965Z,19.05
2019-06-07T08:46:16.242Z,19.11
2019-06-07T08:47:20.345Z,18.98
2019-06-07T08:48:27.353Z,19.35
2019-06-07T08:49:16.511Z,19.22
2019-06-07T08:50:16.794Z,18.75
2019-06-07T08:51:16.864Z,18.73
2019-06-07T08:52:17.165Z,18.79
2019-06-07T08:53:16.447Z,19.32
2019-06-07T08:54:22.606Z,19.32
2019-06-07T08:55:16.835Z,19.20
2019-06-07T08:56:17.115Z,19.20
2019-06-07T08:57:20.992Z,19.35
2019-06-07T08:58:16.328Z,19.25
2019-06-07T08:59:16.611Z,19.31
2019-06-07T09:01:16.259Z,20.31
2019-06-07T09:02:23.581Z,20.28
2019-06-07T09:03:17.117Z,20.07
2019-06-07T09:04:16.243Z,19.96
2019-06-07T09:05:16.514Z,19.79
2019-06-07T09:06:54.267Z,19.62
2019-06-07T09:07:19.719Z,19.59
2019-06-07T09:08:28.981Z,19.65
2019-06-07T09:09:16.966Z,19.79
2019-06-07T09:10:16.251Z,19.65
2019-06-07T09:11:16.307Z,19.65
2019-06-07T09:12:16.587Z,19.90
2019-06-07T09:13:16.858Z,19.84
2019-06-07T09:14:17.128Z,20.23
2019-06-07T09:15:23.087Z,20.34
2019-06-07T09:16:16.741Z,20.45
2019-06-07T09:17:17.015Z,20.54
2019-06-07T09:18:41.788Z,20.48
2019-06-07T09:19:16.559Z,20.54
2019-06-07T09:20:35.514Z,20.48
2019-06-07T09:21:16.384Z,20.62
2019-06-07T09:22:16.649Z,20.60
2019-06-07T09:23:17.689Z,20.54
2019-06-07T09:24:16.395Z,20.52
2019-06-07T09:25:20.848Z,20.48
2019-06-07T09:26:18.820Z,20.54
2019-06-07T09:27:16.477Z,20.34
2019-06-07T09:28:19.975Z,20.39
2019-06-07T09:29:16.215Z,20.56
2019-06-07T09:30:18.751Z,20.59
2019-06-07T09:31:16.552Z,20.60
2019-06-07T09:32:18.577Z,20.86
2019-06-07T09:33:17.090Z,20.84
2019-06-07T09:34:16.365Z,20.94
2019-06-07T09:35:17.721Z,21.20
2019-06-07T09:36:16.296Z,21.21
2019-06-07T09:37:55.920Z,21.11
2019-06-07T09:39:16.531Z,20.89
2019-06-07T09:40:24.088Z,20.69
2019-06-07T09:41:16.920Z,21.30
2019-06-07T09:42:17.204Z,21.23
2019-06-07T09:43:59.460Z,21.57
2019-06-07T09:44:24.449Z,21.47
2019-06-07T09:45:16.899Z,21.47
2019-06-07T09:46:17.199Z,21.48
2019-06-07T09:47:30.867Z,21.17
2019-06-07T09:49:30.433Z,21.34
2019-06-07T09:50:16.251Z,21.69
2019-06-07T09:51:19.576Z,21.04
2019-06-07T09:52:16.993Z,21.23
2019-06-07T09:53:22.212Z,21.37
2019-06-07T09:54:56.407Z,21.15
2019-06-07T09:55:24.142Z,21.20
2019-06-07T09:56:16.594Z,21.21
2019-06-07T09:57:17.639Z,21.34
2019-06-07T09:58:50.010Z,21.48
2019-06-07T09:59:16.703Z,21.58
2019-06-07T10:00:39.598Z,21.57
2019-06-07T10:01:16.398Z,21.57
2019-06-07T10:02:16.675Z,21.75
2019-06-07T10:03:21.713Z,21.48
2019-06-07T10:04:30.593Z,21.68
2019-06-07T10:05:16.916Z,21.85
2019-06-07T10:06:17.218Z,22.07
2019-06-07T10:07:30.522Z,22.00
2019-06-07T10:09:26.091Z,22.00
2019-06-07T10:11:16.815Z,22.35
2019-06-07T10:12:17.089Z,22.55
2019-06-07T10:13:16.355Z,22.35
2019-06-07T10:14:16.648Z,22.30
2019-06-07T10:15:16.948Z,22.10
2019-06-07T10:16:16.234Z,22.23
2019-06-07T10:17:16.515Z,22.35
2019-06-07T10:18:16.810Z,22.34
2019-06-07T10:19:17.090Z,22.31
2019-06-07T10:20:16.389Z,22.37
2019-06-07T10:21:16.443Z,22.48
2019-06-07T10:22:16.715Z,22.48
2019-06-07T10:23:16.990Z,22.41
2019-06-07T10:24:16.260Z,22.33
2019-06-07T10:25:16.536Z,22.53
2019-06-07T10:26:16.810Z,22.75
2019-06-07T10:27:17.093Z,22.53
2019-06-07T10:28:16.362Z,22.70
2019-06-07T10:29:16.630Z,22.61
2019-06-07T10:30:16.917Z,22.61
2019-06-07T10:31:16.971Z,22.60
2019-06-07T10:32:16.248Z,22.71
2019-06-07T10:33:16.519Z,22.70
2019-06-07T10:34:16.786Z,22.40
2019-06-07T10:35:17.082Z,22.27
2019-06-07T10:36:16.389Z,22.15
2019-06-07T10:37:16.763Z,22.26
2019-06-07T10:38:17.032Z,22.64
2019-06-07T10:39:16.296Z,22.67
2019-06-07T10:40:16.573Z,22.81
2019-06-07T10:41:16.649Z,23.12
2019-06-07T10:42:16.923Z,23.18
2019-06-07T10:43:16.260Z,23.23
2019-06-07T10:44:16.551Z,23.53
2019-06-07T10:45:16.832Z,23.57
2019-06-07T10:46:17.106Z,23.87
2019-06-07T10:47:16.388Z,23.92
2019-06-07T10:48:16.676Z,23.75
2019-06-07T10:49:16.952Z,23.74
2019-06-07T10:50:16.242Z,23.74
2019-06-07T10:51:16.327Z,23.78
2019-06-07T10:52:16.611Z,23.81
2019-06-07T10:53:16.877Z,23.77
2019-06-07T10:54:20.696Z,23.41
2019-06-07T10:55:16.785Z,23.37
2019-06-07T10:56:17.061Z,23.25
2019-06-07T10:57:16.421Z,23.43
2019-06-07T10:58:16.762Z,23.64
2019-06-07T10:59:17.038Z,24.16
2019-06-07T11:00:16.309Z,23.95
2019-06-07T11:01:16.385Z,23.88
2019-06-07T11:02:16.686Z,23.88
2019-06-07T11:03:16.976Z,24.16
2019-06-07T11:04:16.253Z,24.22
2019-06-07T11:05:16.530Z,24.39
2019-06-07T11:06:16.805Z,24.66
2019-06-07T11:07:17.124Z,24.97
2019-06-07T11:08:16.395Z,25.15
2019-06-07T11:09:16.660Z,25.39
2019-06-07T11:10:19.567Z,25.56
2019-06-07T11:11:16.989Z,25.56
2019-06-07T11:12:16.250Z,25.93
2019-06-07T11:13:16.535Z,26.08
2019-06-07T11:14:16.800Z,26.05
2019-06-07T11:15:17.083Z,26.02
2019-06-07T11:16:16.348Z,26.27
2019-06-07T11:17:17.846Z,26.02
2019-06-07T11:18:16.213Z,25.88
2019-06-07T11:19:17.865Z,26.11
2019-06-07T11:20:18.300Z,26.29
2019-06-07T11:21:18.547Z,26.40
2019-06-07T11:22:16.909Z,26.21
2019-06-07T11:23:16.776Z,26.48
2019-06-07T11:24:19.775Z,26.28
2019-06-07T11:25:16.960Z,26.63
2019-06-07T11:26:16.242Z,26.71
2019-06-07T11:27:16.616Z,26.28
2019-06-07T11:28:16.894Z,26.35
2019-06-07T11:29:17.157Z,26.50
2019-06-07T11:30:16.347Z,26.93
2019-06-07T11:31:16.419Z,27.05
2019-06-07T11:32:16.694Z,27.10
2019-06-07T11:33:16.993Z,26.91
2019-06-07T11:34:16.271Z,26.92
2019-06-07T11:35:16.541Z,26.79
2019-06-07T11:36:16.815Z,26.73
2019-06-07T11:37:17.102Z,26.43
2019-06-07T11:38:16.382Z,26.60
2019-06-07T11:39:16.653Z,26.59
2019-06-07T11:40:29.658Z,26.42
2019-06-07T11:41:17.833Z,26.45
2019-06-07T11:42:20.009Z,26.59
2019-06-07T11:43:16.498Z,26.48
2019-06-07T11:44:17.181Z,26.59
2019-06-07T11:45:16.545Z,26.53
2019-06-07T11:46:17.246Z,26.75
2019-06-07T11:47:16.581Z,26.49
2019-06-07T11:48:17.578Z,26.28
2019-06-07T11:49:20.193Z,26.55
2019-06-07T11:50:17.566Z,26.66
2019-06-07T11:51:16.499Z,25.95
2019-06-07T11:52:17.757Z,26.08
2019-06-07T11:53:17.163Z,26.23
2019-06-07T11:54:19.124Z,26.17
2019-06-07T11:55:16.950Z,25.85
2019-06-07T11:56:16.242Z,25.69
2019-06-07T11:57:17.302Z,25.73
2019-06-07T11:58:19.489Z,25.72
2019-06-07T11:59:17.401Z,25.80
2019-06-07T12:00:18.326Z,25.76
2019-06-07T12:01:18.529Z,25.52
2019-06-07T12:02:17.566Z,25.52
2019-06-07T12:03:17.998Z,25.41
2019-06-07T12:04:32.266Z,25.34
2019-06-07T12:05:18.365Z,25.38
2019-06-07T12:06:17.988Z,25.46
2019-06-07T12:07:17.489Z,25.33
2019-06-07T12:08:16.244Z,25.28
2019-06-07T12:09:16.882Z,25.19
2019-06-07T12:10:21.104Z,25.00
2019-06-07T12:11:17.001Z,24.76
2019-06-07T12:12:16.570Z,24.58
2019-06-07T12:13:17.383Z,24.86
2019-06-07T12:14:16.813Z,24.98
2019-06-07T12:15:17.488Z,24.90
2019-06-07T12:16:17.370Z,24.98
2019-06-07T12:17:17.612Z,24.98
2019-06-07T12:18:17.319Z,25.03
2019-06-07T12:19:17.647Z,25.21
2019-06-07T12:20:18.636Z,25.45
2019-06-07T12:21:17.974Z,25.24
2019-06-07T12:22:16.662Z,25.34
2019-06-07T12:23:18.074Z,25.27
2019-06-07T12:24:16.480Z,25.23
2019-06-07T12:25:21.074Z,25.20
2019-06-07T12:26:16.638Z,25.17
2019-06-07T12:27:16.982Z,25.07
2019-06-07T12:28:16.799Z,25.06
2019-06-07T12:29:17.251Z,25.23
2019-06-07T12:30:22.371Z,25.17
2019-06-07T12:31:17.122Z,25.19
2019-06-07T12:32:17.489Z,25.24
2019-06-07T12:33:17.688Z,25.19
2019-06-07T12:34:17.448Z,25.24
2019-06-07T12:35:17.725Z,25.27
2019-06-07T12:36:16.216Z,25.28
2019-06-07T12:37:19.240Z,25.34
2019-06-07T12:38:18.875Z,25.42
2019-06-07T12:39:18.037Z,25.26
2019-06-07T12:40:27.449Z,25.27
2019-06-07T12:41:16.399Z,25.26
2019-06-07T12:42:16.684Z,25.41
2019-06-07T12:43:16.967Z,25.52
2019-06-07T12:44:16.567Z,25.45
2019-06-07T12:45:32.255Z,25.41
2019-06-07T12:46:20.828Z,25.44
2019-06-07T12:47:16.861Z,25.42
2019-06-07T12:48:20.573Z,25.40
2019-06-07T12:49:17.064Z,25.27
2019-06-07T12:50:17.402Z,25.41
2019-06-07T12:51:17.182Z,25.33
2019-06-07T12:52:19.184Z,25.24
2019-06-07T12:53:17.822Z,25.28
2019-06-07T12:54:17.559Z,25.45
2019-06-07T12:55:18.126Z,25.64
2019-06-07T12:56:17.722Z,25.68
2019-06-07T12:57:17.928Z,25.72